createdAt,value
2019-04-22T00:00:57.265Z,15.10
2019-04-22T00:03:33.926Z,15.10
2019-04-22T00:06:21.115Z,15.10
2019-04-22T00:08:56.029Z,15.10
2019-04-22T00:11:30.374Z,15.10
2019-04-22T00:14:02.655Z,15.10
2019-04-22T00:16:40.510Z,15.00
2019-04-22T00:21:41.901Z,14.90
2019-04-22T00:24:05.876Z,14.90
2019-04-22T00:26:44.225Z,14.80
2019-04-22T00:29:26.932Z,14.70
2019-04-22T00:32:05.042Z,14.80
2019-04-22T00:34:42.616Z,14.70
2019-04-22T00:37:17.721Z,14.70
2019-04-22T00:39:46.535Z,14.60
2019-04-22T00:42:21.184Z,14.60
2019-04-22T00:44:53.808Z,14.50
2019-04-22T00:47:29.346Z,14.50
2019-04-22T00:50:12.674Z,14.50
2019-04-22T00:52:33.862Z,14.60
2019-04-22T00:55:05.570Z,14.50
2019-04-22T00:57:32.662Z,14.50
2019-04-22T01:00:11.686Z,14.50
2019-04-22T01:02:42.942Z,14.50
2019-04-22T01:05:16.960Z,14.40
2019-04-22T01:07:45.876Z,14.30
2019-04-22T01:10:20.383Z,14.10
2019-04-22T01:12:53.316Z,14.00
2019-04-22T01:15:23.371Z,13.90
2019-04-22T01:17:54.576Z,13.70
2019-04-22T01:20:45.710Z,13.60
2019-04-22T01:23:00.719Z,13.50
2019-04-22T01:25:28.107Z,13.40
2019-04-22T01:27:52.865Z,13.30
2019-04-22T01:30:21.039Z,13.30
2019-04-22T01:32:45.668Z,13.30
2019-04-22T01:35:28.694Z,13.20
2019-04-22T01:38:04.292Z,13.20
2019-04-22T01:40:48.260Z,13.10
2019-04-22T01:43:17.815Z,12.90
2019-04-22T01:45:45.725Z,12.80
2019-04-22T01:48:17.740Z,12.70
2019-04-22T01:50:49.674Z,12.60
2019-04-22T01:53:27.490Z,12.50
2019-04-22T01:55:55.546Z,12.50
2019-04-22T01:58:23.695Z,12.40
2019-04-22T02:01:13.613Z,12.30
2019-04-22T02:03:33.223Z,12.10
2019-04-22T02:06:07.495Z,11.90
2019-04-22T02:08:46.624Z,11.70
2019-04-22T02:11:07.907Z,11.60
2019-04-22T02:16:27.391Z,11.40
2019-04-22T02:18:44.641Z,11.30
2019-04-22T02:21:13.761Z,11.30
2019-04-22T02:26:36.936Z,11.20
2019-04-22T02:41:35.058Z,11.60
2019-04-22T02:54:36.573Z,12.10
2019-04-22T02:56:48.016Z,12.30
2019-04-22T02:59:14.324Z,12.30
2019-04-22T03:04:18.605Z,12.40
2019-04-22T03:10:29.415Z,12.50
2019-04-22T03:12:54.146Z,12.50
2019-04-22T03:15:21.651Z,12.40
2019-04-22T03:18:00.912Z,12.50
2019-04-22T03:20:27.429Z,12.40
2019-04-22T03:23:16.833Z,12.40
2019-04-22T03:28:02.627Z,12.30
2019-04-22T03:30:53.484Z,12.30
2019-04-22T03:38:29.038Z,12.20
2019-04-22T03:40:52.944Z,12.10
2019-04-22T03:43:23.941Z,12.10
2019-04-22T03:45:51.447Z,12.10
2019-04-22T03:48:28.700Z,12.10
2019-04-22T03:50:57.570Z,12.10
2019-04-22T03:53:35.737Z,12.00
2019-04-22T03:56:10.327Z,11.90
2019-04-22T03:58:41.134Z,11.90
2019-04-22T04:01:06.808Z,11.90
2019-04-22T04:03:46.373Z,11.80
2019-04-22T04:06:10.343Z,11.80
2019-04-22T04:11:07.004Z,11.70
2019-04-22T04:13:52.141Z,11.70
2019-04-22T04:16:27.618Z,11.80
2019-04-22T04:18:57.864Z,11.80
2019-04-22T04:24:11.766Z,11.70
2019-04-22T04:26:45.861Z,11.70
2019-04-22T04:29:17.173Z,11.80
2019-04-22T04:31:37.913Z,11.90
2019-04-22T04:34:08.136Z,11.90
2019-04-22T04:36:37.227Z,11.90
2019-04-22T04:39:07.277Z,12.00
2019-04-22T04:41:42.066Z,12.00
2019-04-22T04:44:40.687Z,12.10
2019-04-22T04:49:18.696Z,12.20
2019-04-22T04:51:47.160Z,12.30
2019-04-22T04:56:51.414Z,12.30
2019-04-22T05:01:52.564Z,12.50
2019-04-22T05:07:19.196Z,12.60
2019-04-22T05:09:47.467Z,12.60
2019-04-22T05:12:22.806Z,12.70
2019-04-22T05:14:28.780Z,12.90
2019-04-22T05:19:32.346Z,13.00
2019-04-22T05:22:13.212Z,13.10
2019-04-22T05:30:00.146Z,13.20
2019-04-22T05:32:31.010Z,13.30
2019-04-22T05:34:48.111Z,13.40
2019-04-22T05:37:25.086Z,13.40
2019-04-22T05:39:52.602Z,13.30
2019-04-22T05:42:17.825Z,13.40
2019-04-22T05:44:55.194Z,13.40
2019-04-22T05:47:25.656Z,13.30
2019-04-22T05:49:54.970Z,13.30
2019-04-22T05:52:26.978Z,13.40
2019-04-22T05:55:04.610Z,13.50
2019-04-22T05:57:38.900Z,13.50
2019-04-22T06:00:06.379Z,13.60
2019-04-22T06:02:47.363Z,13.70
2019-04-22T06:05:11.874Z,13.90
2019-04-22T06:07:41.467Z,14.00
2019-04-22T06:10:21.435Z,14.20
2019-04-22T06:12:41.725Z,14.30
2019-04-22T06:15:19.456Z,14.40
2019-04-22T06:18:06.507Z,14.60
2019-04-22T06:20:34.022Z,14.60
2019-04-22T06:23:12.451Z,14.60
2019-04-22T06:26:03.982Z,14.70
2019-04-22T06:28:22.272Z,14.70
2019-04-22T06:35:56.363Z,14.80
2019-04-22T06:38:39.204Z,14.90
2019-04-22T06:41:04.060Z,14.90
2019-04-22T06:43:38.180Z,15.00
2019-04-22T06:46:03.578Z,15.10
2019-04-22T06:48:36.292Z,15.30
2019-04-22T06:51:06.372Z,15.60
2019-04-22T06:53:43.901Z,15.70
2019-04-22T06:56:12.661Z,15.70
2019-04-22T06:58:51.486Z,15.80
2019-04-22T07:01:24.810Z,15.90
2019-04-22T07:06:26.454Z,16.20
2019-04-22T07:09:18.614Z,16.30
2019-04-22T07:11:23.637Z,16.30
2019-04-22T07:14:02.968Z,16.40
2019-04-22T07:16:39.420Z,16.40
2019-04-22T07:19:15.130Z,16.60
2019-04-22T07:21:37.085Z,16.70
2019-04-22T07:24:28.207Z,16.80
2019-04-22T07:26:37.779Z,16.90
2019-04-22T07:29:12.090Z,17.00
2019-04-22T07:31:44.992Z,17.00
2019-04-22T07:34:24.874Z,17.10
2019-04-22T07:36:55.140Z,17.20
2019-04-22T07:39:27.528Z,17.50
2019-04-22T07:41:51.611Z,17.80
2019-04-22T07:47:08.386Z,18.30
2019-04-22T07:49:35.008Z,18.40
2019-04-22T07:51:55.756Z,18.50
2019-04-22T07:54:31.634Z,18.60
2019-04-22T07:57:11.705Z,18.60
2019-04-22T07:59:35.190Z,18.60
2019-04-22T08:02:10.103Z,18.90
2019-04-22T08:04:54.209Z,18.80
2019-04-22T08:07:14.428Z,18.90
2019-04-22T08:09:57.981Z,19.00
2019-04-22T08:12:12.868Z,19.10
2019-04-22T08:14:50.015Z,19.20
2019-04-22T08:17:45.057Z,19.30
2019-04-22T08:19:57.477Z,19.40
2019-04-22T08:22:23.728Z,19.50
2019-04-22T08:25:01.729Z,19.70
2019-04-22T08:27:30.182Z,19.80
2019-04-22T08:30:23.620Z,19.90
2019-04-22T08:35:18.492Z,20.20
2019-04-22T08:40:20.675Z,20.40
2019-04-22T08:42:51.022Z,20.50
2019-04-22T08:45:28.588Z,20.70
2019-04-22T08:48:00.984Z,20.80
2019-04-22T08:50:23.476Z,20.90
2019-04-22T08:52:57.579Z,21.00
2019-04-22T08:55:24.595Z,21.20
2019-04-22T09:00:34.223Z,21.50
2019-04-22T09:03:15.928Z,21.50
2019-04-22T09:08:14.261Z,22.10
2019-04-22T09:13:08.298Z,22.60
2019-04-22T09:15:42.211Z,23.10
2019-04-22T09:18:19.318Z,24.10
2019-04-22T09:20:48.692Z,24.50
2019-04-22T09:23:27.095Z,25.40
2019-04-22T09:25:48.487Z,26.10
2019-04-22T09:28:25.486Z,25.50
2019-04-22T09:31:01.739Z,25.90
2019-04-22T09:33:32.125Z,25.90
2019-04-22T09:36:09.369Z,25.90
2019-04-22T09:38:38.129Z,26.20
2019-04-22T09:41:10.312Z,26.50
2019-04-22T09:43:49.292Z,27.00
2019-04-22T09:46:14.797Z,27.60
2019-04-22T09:48:55.399Z,27.80
2019-04-22T09:51:18.700Z,28.00
2019-04-22T09:53:57.793Z,28.10
2019-04-22T09:56:23.838Z,28.30
2019-04-22T10:01:29.549Z,29.40
2019-04-22T10:14:06.080Z,29.60
2019-04-22T10:19:11.432Z,29.50
2019-04-22T10:21:49.966Z,29.80
2019-04-22T10:24:13.508Z,30.10
2019-04-22T10:26:47.962Z,30.20
2019-04-22T10:29:19.596Z,30.30
2019-04-22T10:31:52.667Z,30.40
2019-04-22T10:34:13.162Z,30.70
2019-04-22T10:36:31.047Z,30.90
2019-04-22T10:39:02.284Z,30.70
2019-04-22T10:41:34.809Z,31.20
2019-04-22T10:44:05.523Z,30.80
2019-04-22T10:46:37.936Z,30.40
2019-04-22T10:49:08.451Z,30.90
2019-04-22T10:51:40.272Z,30.90
2019-04-22T10:54:11.476Z,31.00
2019-04-22T10:56:43.114Z,30.90
2019-04-22T10:59:14.293Z,31.50
2019-04-22T11:01:46.439Z,31.40
2019-04-22T11:04:17.539Z,31.80
2019-04-22T11:06:55.597Z,31.70
2019-04-22T11:09:23.406Z,31.60
2019-04-22T11:12:01.390Z,31.30
2019-04-22T11:14:24.698Z,31.20
2019-04-22T11:16:55.634Z,31.00
2019-04-22T11:19:28.010Z,31.10
2019-04-22T11:22:07.817Z,31.10
2019-04-22T11:24:32.805Z,31.00
2019-04-22T11:27:05.315Z,30.70
2019-04-22T11:29:35.540Z,31.00
2019-04-22T11:32:06.411Z,31.30
2019-04-22T11:34:37.594Z,31.50
2019-04-22T11:37:08.021Z,32.00
2019-04-22T11:39:38.663Z,31.90
2019-04-22T11:42:09.995Z,32.30
2019-04-22T11:44:41.242Z,32.00
2019-04-22T11:47:12.371Z,31.40
2019-04-22T11:49:43.790Z,31.70
2019-04-22T11:52:16.398Z,32.40
2019-04-22T11:54:46.805Z,32.70
2019-04-22T11:57:19.148Z,32.50
2019-04-22T12:03:59.855Z,29.00
2019-04-22T12:06:31.719Z,29.00
2019-04-22T12:09:03.756Z,30.20
2019-04-22T12:17:11.552Z,32.00
2019-04-22T12:22:07.039Z,32.30
2019-04-22T12:24:38.423Z,30.90
2019-04-22T12:27:10.543Z,30.90
2019-04-22T12:29:42.961Z,31.10
2019-04-22T12:32:13.571Z,30.60
2019-04-22T12:34:44.369Z,32.50
2019-04-22T12:37:22.292Z,32.50
2019-04-22T12:39:47.783Z,32.10
2019-04-22T12:42:19.598Z,33.00
2019-04-22T12:44:51.173Z,34.20
2019-04-22T12:47:22.192Z,34.30
2019-04-22T12:49:56.097Z,33.30
2019-04-22T12:52:33.931Z,32.20
2019-04-22T12:54:57.331Z,32.80
2019-04-22T12:57:28.295Z,33.40
2019-04-22T12:59:59.570Z,33.70
2019-04-22T13:02:31.226Z,33.20
2019-04-22T13:05:01.495Z,33.50
2019-04-22T13:07:31.719Z,34.10
2019-04-22T13:10:01.908Z,34.40
2019-04-22T13:12:33.041Z,34.20
2019-04-22T13:15:05.990Z,34.10
2019-04-22T13:17:35.712Z,34.20
2019-04-22T13:20:08.271Z,34.30
2019-04-22T13:22:40.603Z,34.40
2019-04-22T13:25:12.529Z,34.10
2019-04-22T13:27:44.786Z,34.10
2019-04-22T13:30:18.479Z,33.30
2019-04-22T13:32:49.121Z,33.20
2019-04-22T13:35:22.034Z,33.50
2019-04-22T13:37:53.041Z,34.00
2019-04-22T13:40:23.549Z,34.00
2019-04-22T13:42:55.442Z,33.90
2019-04-22T13:45:27.350Z,34.50
2019-04-22T13:48:16.826Z,34.40
2019-04-22T13:51:11.036Z,33.40
2019-04-22T13:55:59.277Z,34.00
2019-04-22T13:58:17.160Z,34.20
2019-04-22T14:00:38.461Z,34.20
2019-04-22T14:03:44.443Z,33.30
2019-04-22T14:06:16.349Z,33.70
2019-04-22T14:09:07.689Z,34.60
2019-04-22T14:11:49.808Z,34.30
2019-04-22T14:14:12.734Z,34.10
2019-04-22T14:16:43.025Z,34.00
2019-04-22T14:21:47.275Z,33.20
2019-04-22T14:24:17.831Z,32.90
2019-04-22T14:27:01.712Z,33.20
2019-04-22T14:29:20.177Z,33.80
2019-04-22T14:40:52.027Z,34.40
2019-04-22T14:44:12.632Z,33.90
2019-04-22T14:46:34.992Z,33.60
2019-04-22T14:48:50.004Z,32.60
2019-04-22T14:51:18.916Z,33.50
2019-04-22T14:53:44.796Z,34.10
2019-04-22T14:56:02.295Z,34.40
2019-04-22T15:00:56.657Z,34.40
2019-04-22T15:05:55.500Z,33.30
2019-04-22T15:08:26.921Z,33.50
2019-04-22T15:10:58.270Z,32.90
2019-04-22T15:13:29.452Z,33.10
2019-04-22T15:16:09.903Z,33.70
2019-04-22T15:18:44.365Z,33.30
2019-04-22T15:21:18.654Z,33.20
2019-04-22T15:23:49.103Z,32.70
2019-04-22T15:26:20.325Z,33.20
2019-04-22T15:28:51.410Z,33.40
2019-04-22T15:31:21.822Z,32.90
2019-04-22T15:33:52.385Z,32.50
2019-04-22T15:36:24.025Z,32.50
2019-04-22T15:38:55.306Z,32.50
2019-04-22T15:41:26.359Z,31.70
2019-04-22T15:43:57.418Z,31.10
2019-04-22T15:51:28.981Z,31.50
2019-04-22T15:54:01.450Z,31.30
2019-04-22T15:56:32.641Z,31.00
2019-04-22T15:59:17.267Z,30.50
2019-04-22T16:01:41.046Z,29.90
2019-04-22T16:04:10.449Z,30.10
2019-04-22T16:06:41.223Z,29.80
2019-04-22T16:09:13.223Z,29.90
2019-04-22T16:11:45.845Z,29.80
2019-04-22T16:14:25.526Z,29.60
2019-04-22T16:16:54.688Z,29.30
2019-04-22T16:19:25.453Z,28.80
2019-04-22T16:22:03.125Z,28.10
2019-04-22T16:24:45.857Z,27.70
2019-04-22T16:27:20.750Z,27.70
2019-04-22T16:29:51.549Z,28.30
2019-04-22T16:32:23.260Z,28.60
2019-04-22T16:34:54.658Z,28.50
2019-04-22T16:37:26.087Z,28.20
2019-04-22T16:39:56.639Z,28.60
2019-04-22T16:42:35.923Z,29.00
2019-04-22T16:44:59.613Z,29.20
2019-04-22T16:47:31.182Z,29.50
2019-04-22T16:50:01.885Z,30.00
2019-04-22T16:52:32.315Z,30.30
2019-04-22T16:55:03.485Z,30.50
2019-04-22T16:57:33.879Z,30.60
2019-04-22T17:00:08.773Z,30.30
2019-04-22T17:03:12.882Z,29.90
2019-04-22T17:06:14.663Z,29.30
2019-04-22T17:08:44.939Z,27.90
2019-04-22T17:11:16.055Z,26.60
2019-04-22T17:13:47.991Z,26.00
2019-04-22T17:16:20.070Z,25.60
2019-04-22T17:18:52.205Z,25.20
2019-04-22T17:21:23.602Z,25.00
2019-04-22T17:23:54.139Z,24.90
2019-04-22T17:26:26.111Z,24.80
2019-04-22T17:28:58.043Z,24.60
2019-04-22T17:31:29.035Z,24.40
2019-04-22T17:33:59.331Z,24.30
2019-04-22T17:36:29.794Z,24.20
2019-04-22T17:39:19.622Z,24.20
2019-04-22T17:41:50.087Z,24.10
2019-04-22T17:47:28.773Z,23.90
2019-04-22T17:50:11.839Z,23.70
2019-04-22T17:52:37.173Z,23.60
2019-04-22T17:55:12.678Z,23.50
2019-04-22T17:57:39.387Z,23.40
2019-04-22T18:00:17.319Z,23.30
2019-04-22T18:02:46.009Z,23.10
2019-04-22T18:05:05.525Z,23.00
2019-04-22T18:07:54.818Z,22.90
2019-04-22T18:13:07.499Z,22.70
2019-04-22T18:15:33.455Z,22.60
2019-04-22T18:18:06.875Z,22.50
2019-04-22T18:20:30.498Z,22.40
2019-04-22T18:22:58.058Z,22.20
2019-04-22T18:25:34.009Z,22.10
2019-04-22T18:30:35.066Z,21.80
2019-04-22T18:33:13.305Z,21.70
2019-04-22T18:35:44.391Z,21.50
2019-04-22T18:38:29.701Z,21.40
2019-04-22T18:40:53.468Z,21.40
2019-04-22T18:43:28.825Z,21.30
2019-04-22T18:46:00.370Z,21.10
2019-04-22T18:48:21.739Z,21.00
2019-04-22T18:51:25.053Z,20.90
2019-04-22T18:54:19.720Z,20.90
2019-04-22T18:56:56.078Z,20.80
2019-04-22T18:59:18.446Z,20.70
2019-04-22T19:01:44.198Z,20.60
2019-04-22T19:04:22.028Z,20.60
2019-04-22T19:07:14.931Z,20.40
2019-04-22T19:09:53.298Z,20.30
2019-04-22T19:12:22.195Z,20.10
2019-04-22T19:14:52.965Z,19.90
2019-04-22T19:17:31.311Z,19.90
2019-04-22T19:19:56.125Z,19.90
2019-04-22T19:22:26.555Z,19.70
2019-04-22T19:24:47.327Z,19.60
2019-04-22T19:27:25.223Z,19.70
2019-04-22T19:29:57.482Z,19.60
2019-04-22T19:32:35.355Z,19.50
2019-04-22T19:34:57.446Z,19.40
2019-04-22T19:37:28.814Z,19.20
2019-04-22T19:40:10.482Z,19.20
2019-04-22T19:42:43.145Z,19.10
2019-04-22T19:45:09.164Z,19.00
2019-04-22T19:47:44.995Z,18.90
2019-04-22T19:50:19.175Z,18.80
2019-04-22T19:52:44.605Z,18.70
2019-04-22T19:55:19.530Z,18.60
2019-04-22T19:57:47.866Z,18.50
2019-04-22T20:00:29.582Z,18.40
2019-04-22T20:03:29.319Z,18.40
2019-04-22T20:06:01.317Z,18.50
2019-04-22T20:08:25.113Z,18.50
2019-04-22T20:10:59.181Z,18.60
2019-04-22T20:13:37.009Z,18.70
2019-04-22T20:15:56.110Z,18.70
2019-04-22T20:18:40.446Z,18.70
2019-04-22T20:21:12.787Z,18.70
2019-04-22T20:23:35.104Z,18.70
2019-04-22T20:26:07.345Z,18.70
2019-04-22T20:28:41.821Z,18.70
2019-04-22T20:31:19.308Z,18.70
2019-04-22T20:33:51.360Z,18.80
2019-04-22T20:36:38.050Z,18.80
2019-04-22T20:38:51.106Z,18.70
2019-04-22T20:41:22.907Z,18.70
2019-04-22T20:44:02.517Z,18.60
2019-04-22T20:46:31.348Z,18.50
2019-04-22T20:49:01.334Z,18.50
2019-04-22T20:51:43.900Z,18.50
2019-04-22T20:54:07.431Z,18.50
2019-04-22T20:56:34.044Z,18.50
2019-04-22T20:59:08.634Z,18.40
2019-04-22T21:01:47.741Z,18.40
2019-04-22T21:03:59.872Z,18.30
2019-04-22T21:06:42.200Z,18.40
2019-04-22T21:09:25.392Z,18.30
2019-04-22T21:11:48.055Z,18.20
2019-04-22T21:14:21.608Z,18.20
2019-04-22T21:16:56.384Z,18.20
2019-04-22T21:19:38.305Z,18.10
2019-04-22T21:22:03.195Z,18.10
2019-04-22T21:24:32.930Z,18.00
2019-04-22T21:27:17.761Z,18.00
2019-04-22T21:29:33.397Z,18.00
2019-04-22T21:32:15.190Z,18.00
2019-04-22T21:34:52.843Z,17.90
2019-04-22T21:37:38.051Z,17.80
2019-04-22T21:39:46.412Z,17.90
2019-04-22T21:42:24.669Z,17.80
2019-04-22T21:44:52.713Z,17.70
2019-04-22T21:47:40.402Z,17.60
2019-04-22T21:50:21.348Z,17.70
2019-04-22T21:52:35.829Z,17.70
2019-04-22T21:55:13.991Z,17.70
2019-04-22T21:57:57.691Z,17.60
2019-04-22T22:00:40.559Z,17.60
2019-04-22T22:02:59.131Z,17.50
2019-04-22T22:05:27.147Z,17.60
2019-04-22T22:07:53.413Z,17.60
2019-04-22T22:10:39.805Z,17.60
2019-04-22T22:13:06.649Z,17.50
2019-04-22T22:15:41.994Z,17.40
2019-04-22T22:18:10.030Z,17.40
2019-04-22T22:21:01.073Z,17.40
2019-04-22T22:23:25.244Z,17.30
2019-04-22T22:25:43.620Z,17.30
2019-04-22T22:31:00.194Z,17.10
2019-04-22T22:33:26.331Z,17.30
2019-04-22T22:35:56.530Z,17.20
2019-04-22T22:38:22.962Z,17.20
2019-04-22T22:40:40.436Z,17.10
2019-04-22T22:43:21.343Z,17.10
2019-04-22T22:45:52.851Z,17.10
2019-04-22T22:48:39.865Z,17.10
2019-04-22T22:51:07.635Z,17.10
2019-04-22T22:53:47.844Z,17.00
2019-04-22T22:56:14.291Z,17.10
2019-04-22T22:58:50.516Z,17.00
2019-04-22T23:01:21.234Z,16.90
2019-04-22T23:03:57.099Z,16.90
2019-04-22T23:06:26.077Z,16.80
2019-04-22T23:08:56.096Z,16.70
2019-04-22T23:11:46.526Z,16.60
2019-04-22T23:14:02.526Z,16.60
2019-04-22T23:16:22.043Z,16.60
2019-04-22T23:19:02.361Z,16.50
2019-04-22T23:21:43.313Z,16.40
2019-04-22T23:24:43.937Z,16.40
2019-04-22T23:27:21.170Z,16.30
2019-04-22T23:29:55.586Z,16.20
2019-04-22T23:32:31.943Z,16.30
2019-04-22T23:35:17.990Z,16.30
2019-04-22T23:37:54.002Z,16.20
2019-04-22T23:43:03.903Z,16.10
2019-04-22T23:45:34.867Z,16.20
2019-04-22T23:47:49.552Z,16.20
2019-04-22T23:50:35.818Z,16.10
2019-04-22T23:53:31.563Z,16.10
2019-04-22T23:55:53.171Z,16.00
2019-04-22T23:58:35.634Z,15.90
